sensor_id;sensor_type;location;lat;lon;timestamp;pressure;altitude;pressure_sealevel;temperature;humidity
61488;BME280;47351;53.326;-6.298;2023-08-08T00:01:03;101335.17;;;14.82;76.18
61488;BME280;47351;53.326;-6.298;2023-08-08T00:03:54;101333.90;;;14.82;76.37
61488;BME280;47351;53.326;-6.298;2023-08-08T00:06:56;101330.42;;;14.82;76.46
61488;BME280;47351;53.326;-6.298;2023-08-08T00:09:47;101327.55;;;14.84;76.61
61488;BME280;47351;53.326;-6.298;2023-08-08T00:12:38;101323.83;;;14.86;76.76
61488;BME280;47351;53.326;-6.298;2023-08-08T00:15:37;101317.65;;;14.86;76.83
61488;BME280;47351;53.326;-6.298;2023-08-08T00:18:28;101315.95;;;14.87;77.08
61488;BME280;47351;53.326;-6.298;2023-08-08T00:21:26;101309.11;;;14.87;77.25
61488;BME280;47351;53.326;-6.298;2023-08-08T00:24:17;101304.30;;;14.87;77.06
61488;BME280;47351;53.326;-6.298;2023-08-08T00:27:07;101294.27;;;14.86;77.07
61488;BME280;47351;53.326;-6.298;2023-08-08T00:29:58;101289.45;;;14.86;77.23
61488;BME280;47351;53.326;-6.298;2023-08-08T00:32:48;101287.86;;;14.86;77.30
61488;BME280;47351;53.326;-6.298;2023-08-08T00:35:42;101286.75;;;14.84;77.39
61488;BME280;47351;53.326;-6.298;2023-08-08T00:38:33;101287.73;;;14.83;77.34
61488;BME280;47351;53.326;-6.298;2023-08-08T00:41:25;101285.70;;;14.84;77.60
61488;BME280;47351;53.326;-6.298;2023-08-08T00:44:16;101288.98;;;14.86;77.61
61488;BME280;47351;53.326;-6.298;2023-08-08T00:47:06;101291.39;;;14.88;77.78
61488;BME280;47351;53.326;-6.298;2023-08-08T00:49:57;101289.67;;;14.91;77.74
61488;BME280;47351;53.326;-6.298;2023-08-08T00:52:50;101291.39;;;14.91;77.53
61488;BME280;47351;53.326;-6.298;2023-08-08T00:55:41;101288.61;;;14.90;77.41
61488;BME280;47351;53.326;-6.298;2023-08-08T00:58:31;101287.02;;;14.89;77.49
61488;BME280;47351;53.326;-6.298;2023-08-08T01:01:24;101279.67;;;14.87;77.49
61488;BME280;47351;53.326;-6.298;2023-08-08T01:04:15;101275.05;;;14.90;78.03
61488;BME280;47351;53.326;-6.298;2023-08-08T01:07:10;101273.65;;;14.94;78.16
61488;BME280;47351;53.326;-6.298;2023-08-08T01:10:03;101270.31;;;14.98;78.23
61488;BME280;47351;53.326;-6.298;2023-08-08T01:12:57;101268.98;;;15.00;78.08
61488;BME280;47351;53.326;-6.298;2023-08-08T01:15:49;101269.05;;;15.01;78.07
61488;BME280;47351;53.326;-6.298;2023-08-08T01:18:40;101271.55;;;15.01;78.13
61488;BME280;47351;53.326;-6.298;2023-08-08T01:21:32;101272.33;;;15.01;78.13
61488;BME280;47351;53.326;-6.298;2023-08-08T01:24:26;101269.59;;;15.01;78.25
61488;BME280;47351;53.326;-6.298;2023-08-08T01:27:20;101271.98;;;14.99;78.37
61488;BME280;47351;53.326;-6.298;2023-08-08T01:30:11;101274.76;;;14.97;78.43
61488;BME280;47351;53.326;-6.298;2023-08-08T01:33:02;101272.80;;;14.95;78.50
61488;BME280;47351;53.326;-6.298;2023-08-08T01:35:58;101269.10;;;14.93;78.59
61488;BME280;47351;53.326;-6.298;2023-08-08T01:38:51;101271.38;;;14.90;78.58
61488;BME280;47351;53.326;-6.298;2023-08-08T01:41:44;101277.58;;;14.88;78.83
61488;BME280;47351;53.326;-6.298;2023-08-08T01:44:36;101278.90;;;14.86;78.90
61488;BME280;47351;53.326;-6.298;2023-08-08T01:47:28;101274.36;;;14.82;79.03
61488;BME280;47351;53.326;-6.298;2023-08-08T01:50:20;101272.30;;;14.80;78.98
61488;BME280;47351;53.326;-6.298;2023-08-08T01:53:12;101268.95;;;14.76;79.00
61488;BME280;47351;53.326;-6.298;2023-08-08T01:56:06;101265.80;;;14.71;78.98
61488;BME280;47351;53.326;-6.298;2023-08-08T01:58:58;101267.14;;;14.65;79.18
61488;BME280;47351;53.326;-6.298;2023-08-08T02:01:51;101274.56;;;14.60;79.29
61488;BME280;47351;53.326;-6.298;2023-08-08T02:04:43;101272.45;;;14.55;79.30
61488;BME280;47351;53.326;-6.298;2023-08-08T02:07:36;101270.94;;;14.50;79.85
61488;BME280;47351;53.326;-6.298;2023-08-08T02:10:27;101268.95;;;14.49;80.27
61488;BME280;47351;53.326;-6.298;2023-08-08T02:13:17;101268.90;;;14.48;80.28
61488;BME280;47351;53.326;-6.298;2023-08-08T02:16:09;101263.58;;;14.47;80.48
61488;BME280;47351;53.326;-6.298;2023-08-08T02:19:00;101254.98;;;14.48;80.71
61488;BME280;47351;53.326;-6.298;2023-08-08T02:21:50;101249.39;;;14.49;80.92
61488;BME280;47351;53.326;-6.298;2023-08-08T02:24:41;101249.25;;;14.46;80.75
61488;BME280;47351;53.326;-6.298;2023-08-08T02:27:32;101244.41;;;14.45;80.84
61488;BME280;47351;53.326;-6.298;2023-08-08T02:30:23;101241.95;;;14.46;81.35
61488;BME280;47351;53.326;-6.298;2023-08-08T02:33:13;101240.15;;;14.50;81.55
61488;BME280;47351;53.326;-6.298;2023-08-08T02:36:04;101236.77;;;14.54;81.65
61488;BME280;47351;53.326;-6.298;2023-08-08T02:38:54;101235.87;;;14.61;81.94
61488;BME280;47351;53.326;-6.298;2023-08-08T02:41:45;101234.70;;;14.66;81.96
61488;BME280;47351;53.326;-6.298;2023-08-08T02:44:36;101235.04;;;14.71;81.86
61488;BME280;47351;53.326;-6.298;2023-08-08T02:47:27;101233.55;;;14.73;81.61
61488;BME280;47351;53.326;-6.298;2023-08-08T02:50:18;101233.67;;;14.74;81.69
61488;BME280;47351;53.326;-6.298;2023-08-08T02:53:08;101234.68;;;14.74;81.65
61488;BME280;47351;53.326;-6.298;2023-08-08T02:56:03;101236.08;;;14.73;81.56
61488;BME280;47351;53.326;-6.298;2023-08-08T02:58:56;101236.09;;;14.70;81.53
61488;BME280;47351;53.326;-6.298;2023-08-08T03:01:47;101233.42;;;14.66;81.57
61488;BME280;47351;53.326;-6.298;2023-08-08T03:04:38;101232.09;;;14.64;81.70
61488;BME280;47351;53.326;-6.298;2023-08-08T03:07:29;101227.92;;;14.61;81.80
61488;BME280;47351;53.326;-6.298;2023-08-08T03:10:21;101220.52;;;14.58;81.87
61488;BME280;47351;53.326;-6.298;2023-08-08T03:13:11;101213.11;;;14.55;82.09
61488;BME280;47351;53.326;-6.298;2023-08-08T03:16:03;101210.46;;;14.53;81.95
61488;BME280;47351;53.326;-6.298;2023-08-08T03:18:54;101218.50;;;14.50;82.11
61488;BME280;47351;53.326;-6.298;2023-08-08T03:21:45;101222.73;;;14.48;82.39
61488;BME280;47351;53.326;-6.298;2023-08-08T03:24:36;101224.45;;;14.45;82.50
61488;BME280;47351;53.326;-6.298;2023-08-08T03:27:27;101227.17;;;14.42;82.51
61488;BME280;47351;53.326;-6.298;2023-08-08T03:30:18;101220.32;;;14.39;82.68
61488;BME280;47351;53.326;-6.298;2023-08-08T03:33:09;101220.39;;;14.36;82.88
61488;BME280;47351;53.326;-6.298;2023-08-08T03:35:59;101222.81;;;14.35;83.12
61488;BME280;47351;53.326;-6.298;2023-08-08T03:38:50;101230.90;;;14.34;83.13
61488;BME280;47351;53.326;-6.298;2023-08-08T03:41:41;101235.87;;;14.33;83.30
61488;BME280;47351;53.326;-6.298;2023-08-08T03:44:32;101239.72;;;14.32;83.43
61488;BME280;47351;53.326;-6.298;2023-08-08T03:47:26;101234.67;;;14.34;83.64
61488;BME280;47351;53.326;-6.298;2023-08-08T03:50:16;101232.41;;;14.36;83.74
61488;BME280;47351;53.326;-6.298;2023-08-08T03:53:10;101230.39;;;14.39;83.84
61488;BME280;47351;53.326;-6.298;2023-08-08T03:56:04;101231.21;;;14.39;83.86
61488;BME280;47351;53.326;-6.298;2023-08-08T03:58:57;101228.94;;;14.37;83.77
61488;BME280;47351;53.326;-6.298;2023-08-08T04:01:47;101225.13;;;14.34;83.54
61488;BME280;47351;53.326;-6.298;2023-08-08T04:04:38;101217.96;;;14.31;83.68
61488;BME280;47351;53.326;-6.298;2023-08-08T04:07:29;101214.74;;;14.26;83.88
61488;BME280;47351;53.326;-6.298;2023-08-08T04:10:20;101215.48;;;14.19;83.77
61488;BME280;47351;53.326;-6.298;2023-08-08T04:13:13;101216.16;;;14.11;83.85
61488;BME280;47351;53.326;-6.298;2023-08-08T04:16:04;101211.09;;;14.04;83.84
61488;BME280;47351;53.326;-6.298;2023-08-08T04:18:57;101210.96;;;13.95;83.80
61488;BME280;47351;53.326;-6.298;2023-08-08T04:21:48;101210.34;;;13.86;83.83
61488;BME280;47351;53.326;-6.298;2023-08-08T04:24:46;101198.35;;;13.77;83.95
61488;BME280;47351;53.326;-6.298;2023-08-08T04:27:37;101196.86;;;13.69;84.28
61488;BME280;47351;53.326;-6.298;2023-08-08T04:30:27;101198.81;;;13.60;84.08
61488;BME280;47351;53.326;-6.298;2023-08-08T04:33:18;101198.53;;;13.53;84.38
61488;BME280;47351;53.326;-6.298;2023-08-08T04:36:09;101191.18;;;13.45;84.56
61488;BME280;47351;53.326;-6.298;2023-08-08T04:39:08;101187.71;;;13.39;84.79
61488;BME280;47351;53.326;-6.298;2023-08-08T04:41:59;101183.35;;;13.33;85.13
61488;BME280;47351;53.326;-6.298;2023-08-08T04:45:00;101186.71;;;13.31;85.25
61488;BME280;47351;53.326;-6.298;2023-08-08T04:47:51;101183.27;;;13.29;85.44
61488;BME280;47351;53.326;-6.298;2023-08-08T04:50:42;101176.82;;;13.29;85.77
61488;BME280;47351;53.326;-6.298;2023-08-08T04:53:37;101182.30;;;13.30;85.84
61488;BME280;47351;53.326;-6.298;2023-08-08T04:56:28;101182.75;;;13.31;86.04
61488;BME280;47351;53.326;-6.298;2023-08-08T04:59:19;101176.23;;;13.33;86.09
61488;BME280;47351;53.326;-6.298;2023-08-08T05:02:09;101172.04;;;13.35;86.02
61488;BME280;47351;53.326;-6.298;2023-08-08T05:05:00;101168.81;;;13.37;86.12
61488;BME280;47351;53.326;-6.298;2023-08-08T05:07:51;101171.77;;;13.38;86.13
61488;BME280;47351;53.326;-6.298;2023-08-08T05:10:42;101170.23;;;13.37;86.01
61488;BME280;47351;53.326;-6.298;2023-08-08T05:13:40;101173.95;;;13.36;86.02
61488;BME280;47351;53.326;-6.298;2023-08-08T05:16:31;101168.56;;;13.33;85.92
61488;BME280;47351;53.326;-6.298;2023-08-08T05:19:22;101165.06;;;13.30;85.89
61488;BME280;47351;53.326;-6.298;2023-08-08T05:22:13;101163.91;;;13.28;86.02
61488;BME280;47351;53.326;-6.298;2023-08-08T05:25:04;101163.80;;;13.25;85.93
61488;BME280;47351;53.326;-6.298;2023-08-08T05:27:55;101168.14;;;13.21;85.81
61488;BME280;47351;53.326;-6.298;2023-08-08T05:30:46;101173.52;;;13.18;85.96
61488;BME280;47351;53.326;-6.298;2023-08-08T05:33:39;101173.06;;;13.15;86.02
61488;BME280;47351;53.326;-6.298;2023-08-08T05:36:30;101173.40;;;13.13;86.07
61488;BME280;47351;53.326;-6.298;2023-08-08T05:39:29;101174.32;;;13.11;86.10
61488;BME280;47351;53.326;-6.298;2023-08-08T05:42:22;101174.66;;;13.09;86.24
61488;BME280;47351;53.326;-6.298;2023-08-08T05:45:13;101172.77;;;13.08;86.31
61488;BME280;47351;53.326;-6.298;2023-08-08T05:48:11;101170.94;;;13.09;86.52
61488;BME280;47351;53.326;-6.298;2023-08-08T05:51:03;101174.45;;;13.11;86.77
61488;BME280;47351;53.326;-6.298;2023-08-08T05:53:54;101183.07;;;13.14;86.79
61488;BME280;47351;53.326;-6.298;2023-08-08T05:56:48;101186.05;;;13.20;86.69
61488;BME280;47351;53.326;-6.298;2023-08-08T05:59:39;101178.23;;;13.29;86.74
61488;BME280;47351;53.326;-6.298;2023-08-08T06:02:30;101177.80;;;13.43;86.92
61488;BME280;47351;53.326;-6.298;2023-08-08T06:05:24;101184.98;;;13.58;86.94
61488;BME280;47351;53.326;-6.298;2023-08-08T06:08:15;101190.84;;;13.75;86.58
61488;BME280;47351;53.326;-6.298;2023-08-08T06:11:05;101186.02;;;13.95;86.22
61488;BME280;47351;53.326;-6.298;2023-08-08T06:13:56;101177.52;;;14.13;85.86
61488;BME280;47351;53.326;-6.298;2023-08-08T06:16:47;101170.55;;;14.29;85.71
61488;BME280;47351;53.326;-6.298;2023-08-08T06:19:38;101165.40;;;14.42;85.23
61488;BME280;47351;53.326;-6.298;2023-08-08T06:22:28;101161.67;;;14.49;85.14
61488;BME280;47351;53.326;-6.298;2023-08-08T06:25:22;101158.67;;;14.57;84.93
61488;BME280;47351;53.326;-6.298;2023-08-08T06:28:12;101156.60;;;14.64;84.76
61488;BME280;47351;53.326;-6.298;2023-08-08T06:31:03;101163.70;;;14.74;84.59
61488;BME280;47351;53.326;-6.298;2023-08-08T06:33:53;101168.13;;;14.89;84.20
61488;BME280;47351;53.326;-6.298;2023-08-08T06:36:44;101166.10;;;15.04;83.88
61488;BME280;47351;53.326;-6.298;2023-08-08T06:39:36;101163.06;;;15.16;83.51
61488;BME280;47351;53.326;-6.298;2023-08-08T06:42:27;101165.42;;;15.28;83.01
61488;BME280;47351;53.326;-6.298;2023-08-08T06:45:18;101177.00;;;15.45;82.69
61488;BME280;47351;53.326;-6.298;2023-08-08T06:48:09;101180.14;;;15.64;82.47
61488;BME280;47351;53.326;-6.298;2023-08-08T06:50:59;101170.22;;;15.84;81.98
61488;BME280;47351;53.326;-6.298;2023-08-08T06:53:50;101159.63;;;16.04;81.47
61488;BME280;47351;53.326;-6.298;2023-08-08T06:56:41;101154.43;;;16.23;81.21
61488;BME280;47351;53.326;-6.298;2023-08-08T06:59:31;101158.14;;;16.37;80.96
61488;BME280;47351;53.326;-6.298;2023-08-08T07:02:21;101160.10;;;16.46;80.57
61488;BME280;47351;53.326;-6.298;2023-08-08T07:05:12;101159.83;;;16.62;80.13
61488;BME280;47351;53.326;-6.298;2023-08-08T07:08:03;101156.84;;;16.79;79.67
61488;BME280;47351;53.326;-6.298;2023-08-08T07:10:54;101155.75;;;16.98;79.12
61488;BME280;47351;53.326;-6.298;2023-08-08T07:13:45;101166.94;;;17.23;78.83
61488;BME280;47351;53.326;-6.298;2023-08-08T07:16:35;101161.66;;;17.55;78.35
61488;BME280;47351;53.326;-6.298;2023-08-08T07:19:26;101157.23;;;17.90;77.60
61488;BME280;47351;53.326;-6.298;2023-08-08T07:22:16;101144.98;;;18.22;76.49
61488;BME280;47351;53.326;-6.298;2023-08-08T07:25:07;101135.86;;;18.43;75.39
61488;BME280;47351;53.326;-6.298;2023-08-08T07:27:58;101135.38;;;18.55;74.57
61488;BME280;47351;53.326;-6.298;2023-08-08T07:30:48;101135.19;;;18.58;73.72
61488;BME280;47351;53.326;-6.298;2023-08-08T07:33:39;101142.22;;;18.62;73.74
61488;BME280;47351;53.326;-6.298;2023-08-08T07:36:29;101139.83;;;18.66;73.40
61488;BME280;47351;53.326;-6.298;2023-08-08T07:39:20;101140.86;;;18.65;72.71
61488;BME280;47351;53.326;-6.298;2023-08-08T07:42:10;101142.79;;;18.67;72.73
61488;BME280;47351;53.326;-6.298;2023-08-08T07:45:01;101136.48;;;18.78;72.67
61488;BME280;47351;53.326;-6.298;2023-08-08T07:47:51;101136.61;;;19.14;72.01
61488;BME280;47351;53.326;-6.298;2023-08-08T07:50:42;101143.20;;;19.84;70.52
61488;BME280;47351;53.326;-6.298;2023-08-08T07:53:32;101152.54;;;20.58;69.26
61488;BME280;47351;53.326;-6.298;2023-08-08T07:56:23;101149.63;;;20.96;67.79
61488;BME280;47351;53.326;-6.298;2023-08-08T07:59:13;101152.60;;;21.12;67.20
61488;BME280;47351;53.326;-6.298;2023-08-08T08:02:04;101161.17;;;21.31;66.75
61488;BME280;47351;53.326;-6.298;2023-08-08T08:04:55;101165.81;;;21.35;66.08
61488;BME280;47351;53.326;-6.298;2023-08-08T08:07:45;101161.98;;;21.41;65.30
61488;BME280;47351;53.326;-6.298;2023-08-08T08:10:36;101147.52;;;21.43;64.55
61488;BME280;47351;53.326;-6.298;2023-08-08T08:13:26;101144.11;;;21.68;64.01
61488;BME280;47351;53.326;-6.298;2023-08-08T08:16:16;101141.50;;;22.13;63.26
61488;BME280;47351;53.326;-6.298;2023-08-08T08:19:07;101140.30;;;22.33;62.51
61488;BME280;47351;53.326;-6.298;2023-08-08T08:21:58;101145.11;;;22.42;61.42
61488;BME280;47351;53.326;-6.298;2023-08-08T08:24:49;101143.84;;;22.49;60.91
61488;BME280;47351;53.326;-6.298;2023-08-08T08:27:40;101136.77;;;22.61;60.70
61488;BME280;47351;53.326;-6.298;2023-08-08T08:30:30;101134.35;;;22.95;59.64
61488;BME280;47351;53.326;-6.298;2023-08-08T08:33:20;101127.61;;;23.26;58.59
61488;BME280;47351;53.326;-6.298;2023-08-08T08:36:11;101119.75;;;23.41;58.08
61488;BME280;47351;53.326;-6.298;2023-08-08T08:39:02;101117.13;;;23.80;56.86
61488;BME280;47351;53.326;-6.298;2023-08-08T08:41:55;101116.21;;;24.18;55.76
61488;BME280;47351;53.326;-6.298;2023-08-08T08:44:50;101122.66;;;24.59;55.55
61488;BME280;47351;53.326;-6.298;2023-08-08T08:47:41;101128.33;;;24.78;55.07
61488;BME280;47351;53.326;-6.298;2023-08-08T08:50:33;101126.95;;;25.72;53.78
61488;BME280;47351;53.326;-6.298;2023-08-08T08:53:24;101117.30;;;26.85;52.12
61488;BME280;47351;53.326;-6.298;2023-08-08T08:56:15;101120.80;;;27.52;50.40
61488;BME280;47351;53.326;-6.298;2023-08-08T08:59:05;101129.83;;;27.21;49.94
61488;BME280;47351;53.326;-6.298;2023-08-08T09:01:57;101134.56;;;26.93;49.46
61488;BME280;47351;53.326;-6.298;2023-08-08T09:04:49;101139.01;;;26.43;49.23
61488;BME280;47351;53.326;-6.298;2023-08-08T09:07:40;101140.02;;;25.74;50.01
61488;BME280;47351;53.326;-6.298;2023-08-08T09:10:31;101135.74;;;25.34;50.39
61488;BME280;47351;53.326;-6.298;2023-08-08T09:13:22;101133.77;;;25.00;51.09
61488;BME280;47351;53.326;-6.298;2023-08-08T09:16:14;101135.00;;;24.78;51.24
61488;BME280;47351;53.326;-6.298;2023-08-08T09:19:06;101131.84;;;24.61;51.31
61488;BME280;47351;53.326;-6.298;2023-08-08T09:21:56;101126.27;;;24.64;51.00
61488;BME280;47351;53.326;-6.298;2023-08-08T09:24:47;101128.48;;;24.86;50.78
61488;BME280;47351;53.326;-6.298;2023-08-08T09:27:38;101126.08;;;25.37;50.28
61488;BME280;47351;53.326;-6.298;2023-08-08T09:30:28;101121.65;;;25.94;49.03
61488;BME280;47351;53.326;-6.298;2023-08-08T09:33:22;101121.63;;;26.36;48.80
61488;BME280;47351;53.326;-6.298;2023-08-08T09:36:14;101125.61;;;26.53;48.20
61488;BME280;47351;53.326;-6.298;2023-08-08T09:39:05;101127.29;;;26.21;47.97
61488;BME280;47351;53.326;-6.298;2023-08-08T09:41:56;101125.18;;;25.76;48.51
61488;BME280;47351;53.326;-6.298;2023-08-08T09:44:47;101124.96;;;25.24;48.46
61488;BME280;47351;53.326;-6.298;2023-08-08T09:47:38;101132.02;;;24.67;48.85
61488;BME280;47351;53.326;-6.298;2023-08-08T09:50:28;101133.19;;;24.07;49.02
61488;BME280;47351;53.326;-6.298;2023-08-08T09:53:21;101134.16;;;23.49;49.69
61488;BME280;47351;53.326;-6.298;2023-08-08T09:56:12;101141.77;;;23.04;50.54
61488;BME280;47351;53.326;-6.298;2023-08-08T09:59:04;101147.74;;;22.70;51.57
61488;BME280;47351;53.326;-6.298;2023-08-08T10:01:55;101148.34;;;22.34;52.36
61488;BME280;47351;53.326;-6.298;2023-08-08T10:04:47;101145.75;;;22.06;53.12
61488;BME280;47351;53.326;-6.298;2023-08-08T10:07:38;101150.21;;;21.88;53.93
61488;BME280;47351;53.326;-6.298;2023-08-08T10:10:29;101144.98;;;21.70;54.27
61488;BME280;47351;53.326;-6.298;2023-08-08T10:13:20;101145.67;;;21.50;55.06
61488;BME280;47351;53.326;-6.298;2023-08-08T10:16:11;101150.23;;;21.37;55.77
61488;BME280;47351;53.326;-6.298;2023-08-08T10:19:02;101148.21;;;21.32;56.44
61488;BME280;47351;53.326;-6.298;2023-08-08T10:21:58;101139.86;;;21.23;56.81
61488;BME280;47351;53.326;-6.298;2023-08-08T10:24:50;101147.00;;;21.10;56.89
61488;BME280;47351;53.326;-6.298;2023-08-08T10:27:41;101155.63;;;21.04;57.42
61488;BME280;47351;53.326;-6.298;2023-08-08T10:30:42;101150.17;;;21.04;57.37
61488;BME280;47351;53.326;-6.298;2023-08-08T10:33:40;101151.85;;;21.13;57.65
61488;BME280;47351;53.326;-6.298;2023-08-08T10:36:44;101153.54;;;21.26;57.54
61488;BME280;47351;53.326;-6.298;2023-08-08T10:39:34;101155.67;;;21.19;57.49
61488;BME280;47351;53.326;-6.298;2023-08-08T10:42:25;101158.27;;;21.01;57.87
61488;BME280;47351;53.326;-6.298;2023-08-08T10:45:16;101157.46;;;20.80;58.80
61488;BME280;47351;53.326;-6.298;2023-08-08T10:48:09;101157.24;;;20.48;58.96
61488;BME280;47351;53.326;-6.298;2023-08-08T10:51:00;101157.13;;;20.08;59.44
61488;BME280;47351;53.326;-6.298;2023-08-08T10:53:52;101158.45;;;19.59;60.13
61488;BME280;47351;53.326;-6.298;2023-08-08T10:56:48;101164.38;;;19.23;61.05
61488;BME280;47351;53.326;-6.298;2023-08-08T10:59:42;101158.35;;;18.96;61.92
61488;BME280;47351;53.326;-6.298;2023-08-08T11:02:32;101154.77;;;18.74;62.50
61488;BME280;47351;53.326;-6.298;2023-08-08T11:05:23;101151.23;;;18.52;63.19
61488;BME280;47351;53.326;-6.298;2023-08-08T11:08:15;101149.85;;;18.45;63.65
61488;BME280;47351;53.326;-6.298;2023-08-08T11:11:06;101140.98;;;18.42;63.82
61488;BME280;47351;53.326;-6.298;2023-08-08T11:13:57;101139.01;;;18.41;63.86
61488;BME280;47351;53.326;-6.298;2023-08-08T11:16:48;101139.94;;;18.42;64.20
61488;BME280;47351;53.326;-6.298;2023-08-08T11:19:41;101144.13;;;18.44;64.48
61488;BME280;47351;53.326;-6.298;2023-08-08T11:22:31;101157.30;;;18.50;64.52
61488;BME280;47351;53.326;-6.298;2023-08-08T11:25:22;101165.43;;;18.57;64.62
61488;BME280;47351;53.326;-6.298;2023-08-08T11:28:15;101167.37;;;18.67;64.77
61488;BME280;47351;53.326;-6.298;2023-08-08T11:31:06;101161.58;;;18.83;64.86
61488;BME280;47351;53.326;-6.298;2023-08-08T11:33:58;101155.31;;;18.96;64.57
61488;BME280;47351;53.326;-6.298;2023-08-08T11:36:49;101158.92;;;19.04;64.43
61488;BME280;47351;53.326;-6.298;2023-08-08T11:39:39;101166.40;;;19.03;63.92
61488;BME280;47351;53.326;-6.298;2023-08-08T11:42:30;101175.84;;;18.94;63.91
61488;BME280;47351;53.326;-6.298;2023-08-08T11:45:21;101175.84;;;18.87;64.26
61488;BME280;47351;53.326;-6.298;2023-08-08T11:48:11;101178.19;;;18.75;64.33
61488;BME280;47351;53.326;-6.298;2023-08-08T11:51:04;101182.35;;;18.55;64.51
61488;BME280;47351;53.326;-6.298;2023-08-08T11:53:55;101187.56;;;18.40;65.04
61488;BME280;47351;53.326;-6.298;2023-08-08T11:56:45;101179.42;;;18.27;65.34
61488;BME280;47351;53.326;-6.298;2023-08-08T11:59:36;101172.74;;;18.17;65.61
61488;BME280;47351;53.326;-6.298;2023-08-08T12:02:27;101169.94;;;18.07;66.08
61488;BME280;47351;53.326;-6.298;2023-08-08T12:05:20;101171.27;;;17.96;66.33
61488;BME280;47351;53.326;-6.298;2023-08-08T12:08:11;101165.62;;;17.91;67.07
61488;BME280;47351;53.326;-6.298;2023-08-08T12:11:01;101161.63;;;17.88;67.98
61488;BME280;47351;53.326;-6.298;2023-08-08T12:13:57;101157.45;;;17.80;68.84
61488;BME280;47351;53.326;-6.298;2023-08-08T12:16:49;101154.73;;;17.80;69.87
61488;BME280;47351;53.326;-6.298;2023-08-08T12:19:39;101146.52;;;17.89;70.28
61488;BME280;47351;53.326;-6.298;2023-08-08T12:22:35;101144.48;;;18.05;70.07
61488;BME280;47351;53.326;-6.298;2023-08-08T12:25:26;101136.34;;;18.21;70.10
61488;BME280;47351;53.326;-6.298;2023-08-08T12:28:16;101129.94;;;18.42;70.27
61488;BME280;47351;53.326;-6.298;2023-08-08T12:31:07;101126.89;;;18.73;70.44
61488;BME280;47351;53.326;-6.298;2023-08-08T12:33:58;101116.37;;;19.16;69.45
61488;BME280;47351;53.326;-6.298;2023-08-08T12:36:49;101115.77;;;19.90;68.37
61488;BME280;47351;53.326;-6.298;2023-08-08T12:39:39;101114.52;;;20.81;67.38
61488;BME280;47351;53.326;-6.298;2023-08-08T12:42:30;101126.63;;;21.80;65.19
61488;BME280;47351;53.326;-6.298;2023-08-08T12:45:20;101126.89;;;22.32;63.61
61488;BME280;47351;53.326;-6.298;2023-08-08T12:48:11;101122.40;;;22.55;63.01
61488;BME280;47351;53.326;-6.298;2023-08-08T12:51:01;101118.49;;;22.69;61.71
61488;BME280;47351;53.326;-6.298;2023-08-08T12:53:52;101118.15;;;23.57;60.47
61488;BME280;47351;53.326;-6.298;2023-08-08T12:56:43;101114.83;;;24.67;57.51
61488;BME280;47351;53.326;-6.298;2023-08-08T12:59:34;101118.96;;;24.81;57.13
61488;BME280;47351;53.326;-6.298;2023-08-08T13:02:24;101118.69;;;25.14;56.66
61488;BME280;47351;53.326;-6.298;2023-08-08T13:05:18;101113.23;;;25.43;54.78
61488;BME280;47351;53.326;-6.298;2023-08-08T13:08:10;101114.54;;;25.34;55.17
61488;BME280;47351;53.326;-6.298;2023-08-08T13:11:02;101115.75;;;25.20;54.52
61488;BME280;47351;53.326;-6.298;2023-08-08T13:13:54;101117.06;;;24.99;54.39
61488;BME280;47351;53.326;-6.298;2023-08-08T13:16:44;101115.27;;;25.39;53.68
61488;BME280;47351;53.326;-6.298;2023-08-08T13:19:35;101121.98;;;25.49;53.25
61488;BME280;47351;53.326;-6.298;2023-08-08T13:22:26;101125.83;;;25.29;52.33
61488;BME280;47351;53.326;-6.298;2023-08-08T13:25:16;101128.78;;;25.49;52.07
61488;BME280;47351;53.326;-6.298;2023-08-08T13:28:11;101125.49;;;26.02;51.59
61488;BME280;47351;53.326;-6.298;2023-08-08T13:31:04;101119.11;;;26.49;50.53
61488;BME280;47351;53.326;-6.298;2023-08-08T13:33:59;101113.54;;;26.57;50.33
61488;BME280;47351;53.326;-6.298;2023-08-08T13:36:49;101116.77;;;26.65;49.98
61488;BME280;47351;53.326;-6.298;2023-08-08T13:39:40;101122.55;;;26.62;49.43
61488;BME280;47351;53.326;-6.298;2023-08-08T13:42:30;101118.79;;;26.33;48.81
61488;BME280;47351;53.326;-6.298;2023-08-08T13:45:23;101111.64;;;26.10;49.04
61488;BME280;47351;53.326;-6.298;2023-08-08T13:48:14;101116.90;;;25.98;49.33
61488;BME280;47351;53.326;-6.298;2023-08-08T13:51:04;101123.04;;;25.82;49.69
61488;BME280;47351;53.326;-6.298;2023-08-08T13:53:56;101120.20;;;25.57;49.86
61488;BME280;47351;53.326;-6.298;2023-08-08T13:56:46;101122.84;;;25.27;50.40
61488;BME280;47351;53.326;-6.298;2023-08-08T13:59:37;101135.59;;;24.90;50.60
61488;BME280;47351;53.326;-6.298;2023-08-08T14:02:29;101137.73;;;24.66;50.43
61488;BME280;47351;53.326;-6.298;2023-08-08T14:05:20;101139.17;;;24.31;50.55
61488;BME280;47351;53.326;-6.298;2023-08-08T14:08:10;101143.20;;;24.18;51.15
61488;BME280;47351;53.326;-6.298;2023-08-08T14:11:01;101151.46;;;24.10;51.73
61488;BME280;47351;53.326;-6.298;2023-08-08T14:13:52;101146.73;;;24.01;51.87
61488;BME280;47351;53.326;-6.298;2023-08-08T14:16:42;101147.16;;;23.92;52.12
61488;BME280;47351;53.326;-6.298;2023-08-08T14:19:33;101140.33;;;24.11;51.95
61488;BME280;47351;53.326;-6.298;2023-08-08T14:22:23;101133.24;;;24.54;51.15
61488;BME280;47351;53.326;-6.298;2023-08-08T14:25:14;101131.02;;;24.56;51.20
61488;BME280;47351;53.326;-6.298;2023-08-08T14:28:05;101130.27;;;24.37;51.32
61488;BME280;47351;53.326;-6.298;2023-08-08T14:30:57;101133.73;;;23.93;51.47
61488;BME280;47351;53.326;-6.298;2023-08-08T14:33:48;101131.77;;;23.49;52.31
61488;BME280;47351;53.326;-6.298;2023-08-08T14:36:38;101135.51;;;23.21;52.93
61488;BME280;47351;53.326;-6.298;2023-08-08T14:39:29;101140.77;;;23.05;53.37
61488;BME280;47351;53.326;-6.298;2023-08-08T14:42:19;101142.90;;;22.83;53.35
61488;BME280;47351;53.326;-6.298;2023-08-08T14:45:10;101141.77;;;22.79;53.62